Time;durP1;ratioP1;P1;durP2;ratioP2;P2;SDS_P1;SDS_P2;PMS_P1;PMS_P2;Temp;Humidity;BMP_temperature;BMP_pressure;BME280_temperature;BME280_humidity;BME280_pressure;Samples;Min_cycle;Max_cycle;Signal;HPM_P1;HPM_P2
2022/11/11 00:00:57;;;;;;;0.10;0.10;;;;;;;4.87;100.00;97917.63;4915963;29;20562;-77
2022/11/11 00:04:02;;;;;;;0.10;0.10;;;;;;;4.82;100.00;97905.88;4914240;29;20507;-75
2022/11/11 00:07:06;;;;;;;0.10;0.10;;;;;;;4.82;100.00;97908.53;4916848;29;20074;-76
2022/11/11 00:10:10;;;;;;;0.10;0.10;;;;;;;4.89;100.00;97893.56;4914829;29;20051;-76
2022/11/11 00:13:15;;;;;;;0.10;0.10;;;;;;;5.13;100.00;97905.81;4914263;29;20513;-76
2022/11/11 00:16:19;;;;;;;0.10;0.10;;;;;;;5.31;100.00;97909.00;4916317;29;20111;-75
2022/11/11 00:26:13;;;;;;;0.10;0.10;;;;;;;5.64;100.00;97911.31;4915652;29;20058;-76
2022/11/11 00:29:19;;;;;;;0.10;0.10;;;;;;;5.57;100.00;97893.47;4914029;29;20045;-76
2022/11/11 00:32:32;;;;;;;0.40;0.20;;;;;;;5.48;100.00;97889.25;4915207;29;20072;-76
2022/11/11 00:35:52;;;;;;;0.57;0.30;;;;;;;5.44;100.00;97884.47;4914370;29;20047;-75
2022/11/11 00:38:57;;;;;;;1.55;0.60;;;;;;;5.32;100.00;97863.69;4911784;29;20158;-75
2022/11/11 00:42:01;;;;;;;0.95;0.40;;;;;;;5.26;100.00;97864.41;4915398;29;20051;-75
2022/11/11 00:45:06;;;;;;;0.28;0.20;;;;;;;5.21;100.00;97861.47;4916208;29;20130;-77
2022/11/11 00:51:34;;;;;;;0.10;0.10;;;;;;;5.17;100.00;97886.72;4916510;29;20050;-76
2022/11/11 00:54:38;;;;;;;0.10;0.10;;;;;;;5.11;100.00;97889.25;4914633;29;20043;-76
2022/11/11 00:57:43;;;;;;;0.10;0.10;;;;;;;5.04;100.00;97884.66;4916472;29;20484;-76
2022/11/11 01:00:52;;;;;;;0.10;0.10;;;;;;;4.96;100.00;97875.94;4918372;29;20044;-77
2022/11/11 01:03:57;;;;;;;0.10;0.10;;;;;;;4.95;100.00;97871.66;4919288;29;20067;-77
2022/11/11 01:07:01;;;;;;;0.10;0.10;;;;;;;4.95;100.00;97882.25;4921014;29;20036;-77
2022/11/11 01:10:06;;;;;;;0.20;0.20;;;;;;;4.89;100.00;97875.81;4907302;29;20639;-76
2022/11/11 01:13:17;;;;;;;0.10;0.10;;;;;;;4.93;100.00;97884.28;4917234;29;20047;-76
2022/11/11 01:16:25;;;;;;;0.10;0.10;;;;;;;4.94;100.00;97883.25;4917736;29;20861;-76
2022/11/11 01:19:29;;;;;;;0.22;0.20;;;;;;;5.07;100.00;97890.63;4916621;29;20056;-77
2022/11/11 01:22:33;;;;;;;0.50;0.22;;;;;;;5.06;100.00;97884.50;4917628;29;20365;-76
2022/11/11 01:25:39;;;;;;;0.20;0.20;;;;;;;5.07;100.00;97872.06;4916940;29;20046;-76
2022/11/11 01:28:44;;;;;;;0.10;0.10;;;;;;;4.96;100.00;97876.75;4917210;29;20118;-76
2022/11/11 01:31:49;;;;;;;0.10;0.10;;;;;;;4.88;100.00;97882.13;4918148;29;20036;-76
2022/11/11 01:34:56;;;;;;;0.10;0.10;;;;;;;4.81;100.00;97888.31;4918709;29;20134;-76
2022/11/11 01:38:00;;;;;;;0.10;0.10;;;;;;;4.78;100.00;97891.34;4928315;28;20686;-77
2022/11/11 01:44:45;;;;;;;0.10;0.10;;;;;;;4.70;100.00;97916.09;4916658;29;20047;-75
2022/11/11 01:51:25;;;;;;;0.10;0.10;;;;;;;4.75;100.00;97908.44;4918045;29;20044;-77
2022/11/11 01:54:52;;;;;;;0.10;0.10;;;;;;;4.80;100.00;97907.91;4916149;29;20040;-76
2022/11/11 01:58:05;;;;;;;0.10;0.10;;;;;;;4.78;100.00;97891.34;4917457;29;20044;-76
2022/11/11 02:01:09;;;;;;;0.10;0.10;;;;;;;4.89;100.00;97898.88;4904775;29;20058;-77
2022/11/11 02:07:41;;;;;;;0.10;0.10;;;;;;;4.90;100.00;97905.81;4917353;29;21483;-75
2022/11/11 02:10:47;;;;;;;0.10;0.10;;;;;;;4.93;100.00;97908.16;4915563;29;20187;-76
2022/11/11 02:17:16;;;;;;;0.10;0.10;;;;;;;5.03;100.00;97906.06;4916846;29;20401;-77
2022/11/11 02:20:24;;;;;;;0.30;0.20;;;;;;;5.05;100.00;97906.69;4895573;29;20051;-75
2022/11/11 02:23:52;;;;;;;0.10;0.10;;;;;;;5.01;100.00;97894.81;4915747;29;20043;-76
2022/11/11 02:26:58;;;;;;;0.10;0.10;;;;;;;5.06;100.00;97899.56;4903141;29;20768;-76
2022/11/11 02:30:06;;;;;;;0.30;0.20;;;;;;;5.18;100.00;97906.13;4917573;29;20555;-76
2022/11/11 02:33:10;;;;;;;1.05;0.47;;;;;;;5.17;100.00;97909.78;4917080;29;20115;-76
2022/11/11 02:36:15;;;;;;;0.45;0.20;;;;;;;5.25;100.00;97904.41;4927283;28;20054;-76
2022/11/11 02:39:20;;;;;;;0.17;0.17;;;;;;;5.20;100.00;97917.38;4916027;29;20052;-77
2022/11/11 02:42:25;;;;;;;0.10;0.10;;;;;;;5.10;100.00;97917.63;4895775;29;20050;-76
2022/11/11 02:45:29;;;;;;;0.10;0.10;;;;;;;4.92;100.00;97909.97;4916756;29;20036;-77
2022/11/11 02:48:34;;;;;;;0.10;0.10;;;;;;;4.79;100.00;97916.88;4918312;29;20502;-74
2022/11/11 02:51:38;;;;;;;0.10;0.10;;;;;;;4.69;100.00;97922.41;4916158;29;20487;-74
2022/11/11 02:54:43;;;;;;;0.10;0.10;;;;;;;4.83;100.00;97918.19;4915115;29;20047;-74
2022/11/11 02:57:48;;;;;;;0.20;0.20;;;;;;;4.92;100.00;97909.97;4916774;29;20039;-75
2022/11/11 03:00:52;;;;;;;0.30;0.20;;;;;;;4.59;100.00;97904.06;4916820;29;20043;-74
2022/11/11 03:03:56;;;;;;;0.10;0.10;;;;;;;4.65;100.00;97906.00;4915037;29;20058;-75
2022/11/11 03:07:01;;;;;;;0.10;0.10;;;;;;;4.61;100.00;97911.84;4917562;29;20141;-74
2022/11/11 03:10:07;;;;;;;0.10;0.10;;;;;;;4.45;100.00;97910.94;4916575;29;20111;-75
2022/11/11 03:13:11;;;;;;;0.10;0.10;;;;;;;4.38;100.00;97910.00;4927615;28;20130;-75
2022/11/11 03:19:38;;;;;;;0.20;0.20;;;;;;;4.31;100.00;97905.56;4905629;29;20087;-74
2022/11/11 03:22:43;;;;;;;0.10;0.10;;;;;;;4.38;100.00;97906.50;4916378;29;20058;-75
2022/11/11 03:25:47;;;;;;;0.20;0.20;;;;;;;4.34;100.00;97911.31;4915440;29;20042;-76
2022/11/11 03:28:52;;;;;;;0.17;0.17;;;;;;;4.31;100.00;97916.16;4914470;29;20125;-76
2022/11/11 03:31:56;;;;;;;0.10;0.10;;;;;;;4.22;100.00;97918.03;4914893;29;20162;-75
2022/11/11 03:35:00;;;;;;;0.10;0.10;;;;;;;4.12;100.00;97923.50;4904104;29;20044;-75
2022/11/11 03:38:22;;;;;;;0.10;0.10;;;;;;;4.06;100.00;97920.75;4915018;29;20562;-75
2022/11/11 03:41:27;;;;;;;;;;;;;;;3.85;100.00;97934.53;4917247;29;20530;-76
2022/11/11 03:44:31;;;;;;;0.10;0.10;;;;;;;3.75;100.00;97931.28;4913209;29;19919;-76
2022/11/11 03:47:36;;;;;;;0.10;0.10;;;;;;;3.44;100.00;97937.28;4915400;29;20158;-76
2022/11/11 03:50:40;;;;;;;0.10;0.10;;;;;;;3.45;100.00;97938.09;4913288;29;20067;-76
2022/11/11 03:53:45;;;;;;;0.10;0.10;;;;;;;3.46;100.00;97948.53;4913902;29;20044;-76
2022/11/11 03:56:49;;;;;;;0.10;0.10;;;;;;;3.46;100.00;97942.41;4913744;29;20071;-75
2022/11/11 03:59:54;;;;;;;0.10;0.10;;;;;;;3.62;100.00;97948.50;4912254;29;20054;-76
2022/11/11 04:10:23;;;;;;;0.22;0.20;;;;;;;3.87;100.00;97938.66;4916039;29;20050;-76
2022/11/11 04:16:52;;;;;;;0.35;0.20;;;;;;;3.75;100.00;97932.09;4912998;29;20599;-75
2022/11/11 04:23:20;;;;;;;0.20;0.20;;;;;;;3.75;100.00;97937.38;4914445;29;20078;-77
2022/11/11 04:26:25;;;;;;;0.28;0.20;;;;;;;3.91;100.00;97928.56;4903621;29;20122;-76
2022/11/11 04:29:30;;;;;;;0.20;0.20;;;;;;;3.98;100.00;97929.53;4911462;29;20044;-76
2022/11/11 04:32:37;;;;;;;0.20;0.20;;;;;;;4.17;100.00;97941.53;4911926;29;20350;-75
2022/11/11 04:35:41;;;;;;;0.15;0.15;;;;;;;4.22;100.00;97933.09;4913143;29;20350;-75
2022/11/11 04:42:09;;;;;;;0.10;0.10;;;;;;;3.93;100.00;97929.22;4914416;29;20225;-76
2022/11/11 04:45:34;;;;;;;0.40;0.20;;;;;;;3.96;100.00;97917.44;4913880;29;20241;-77
2022/11/11 04:48:39;;;;;;;0.55;0.20;;;;;;;3.99;100.00;97915.31;4914426;29;20102;-76
2022/11/11 04:58:33;;;;;;;0.25;0.20;;;;;;;3.83;100.00;97921.47;4912974;29;20338;-76
2022/11/11 05:05:01;;;;;;;0.40;0.22;;;;;;;3.84;100.00;97943.50;4914367;29;20048;-77
2022/11/11 05:11:34;;;;;;;0.50;0.30;;;;;;;3.73;100.00;97938.53;4914414;29;20546;-76
2022/11/11 05:21:28;;;;;;;0.28;0.17;;;;;;;3.20;100.00;97954.00;4915439;29;20310;-77
2022/11/11 05:27:56;;;;;;;0.10;0.10;;;;;;;3.04;100.00;97960.13;4914668;29;20044;-76
2022/11/11 05:31:01;;;;;;;0.10;0.10;;;;;;;3.00;100.00;97950.84;4914138;29;20145;-76
2022/11/11 05:34:05;;;;;;;0.10;0.10;;;;;;;3.07;100.00;97962.44;4924811;28;20058;-77
2022/11/11 05:37:10;;;;;;;0.10;0.10;;;;;;;3.16;100.00;97960.59;4915493;29;20051;-77
2022/11/11 05:40:15;;;;;;;0.15;0.15;;;;;;;3.03;100.00;97957.63;4915093;29;20038;-76
2022/11/11 05:43:19;;;;;;;0.10;0.10;;;;;;;2.99;100.00;97965.06;4915474;29;20044;-77
2022/11/11 05:46:24;;;;;;;0.13;0.10;;;;;;;2.97;100.00;97972.34;4926804;28;20043;-77
2022/11/11 05:49:29;;;;;;;0.10;0.10;;;;;;;3.01;100.00;97964.88;4917739;29;20115;-77
2022/11/11 05:52:33;;;;;;;0.10;0.10;;;;;;;2.93;100.00;97960.41;4917474;29;20117;-77
2022/11/11 05:55:38;;;;;;;0.10;0.10;;;;;;;2.99;100.00;97959.78;4917193;29;20671;-76
2022/11/11 05:58:42;;;;;;;0.10;0.10;;;;;;;3.12;100.00;97971.69;4916696;29;20075;-76
2022/11/11 06:01:46;;;;;;;0.10;0.10;;;;;;;3.05;100.00;97967.06;4918011;29;20834;-76
2022/11/11 06:04:52;;;;;;;0.10;0.10;;;;;;;3.01;100.00;97971.00;4903893;29;20047;-77
2022/11/11 06:07:57;;;;;;;0.10;0.10;;;;;;;3.05;100.00;97967.06;4918702;29;20050;-76
2022/11/11 06:11:01;;;;;;;0.20;0.20;;;;;;;3.04;100.00;97964.59;4918170;29;20045;-76
2022/11/11 06:14:06;;;;;;;0.10;0.10;;;;;;;3.04;100.00;97969.88;4907061;29;20335;-77
2022/11/11 06:17:10;;;;;;;0.10;0.10;;;;;;;3.11;100.00;97967.38;4918726;29;20123;-77
2022/11/11 06:20:15;;;;;;;0.10;0.10;;;;;;;3.27;100.00;97976.16;4917730;29;20351;-76
2022/11/11 06:23:19;;;;;;;0.10;0.10;;;;;;;3.34;100.00;97978.94;4919678;29;20124;-77
2022/11/11 06:26:24;;;;;;;0.20;0.10;;;;;;;3.39;100.00;97981.94;4919542;29;20036;-77
2022/11/11 06:29:28;;;;;;;0.13;0.13;;;;;;;3.32;100.00;97988.88;4917279;29;20063;-76
2022/11/11 06:32:32;;;;;;;0.17;0.17;;;;;;;3.36;100.00;98000.81;4916161;29;20043;-78
2022/11/11 06:35:39;;;;;;;0.10;0.10;;;;;;;3.32;100.00;97996.81;4917024;29;20310;-76
2022/11/11 06:38:43;;;;;;;0.10;0.10;;;;;;;3.22;100.00;97998.81;4917039;29;20040;-77
2022/11/11 06:41:48;;;;;;;0.10;0.10;;;;;;;3.31;100.00;98011.88;4918065;29;20058;-76
2022/11/11 06:44:52;;;;;;;0.10;0.10;;;;;;;3.18;100.00;98016.81;4916429;29;20039;-75
2022/11/11 06:47:56;;;;;;;0.10;0.10;;;;;;;3.23;100.00;98021.63;4918774;29;20054;-74
2022/11/11 06:51:04;;;;;;;0.10;0.10;;;;;;;3.24;100.00;98023.28;4919415;29;20086;-76
2022/11/11 06:54:22;;;;;;;0.10;0.10;;;;;;;3.24;100.00;98026.75;4917709;29;20040;-76
2022/11/11 06:57:27;;;;;;;0.10;0.10;;;;;;;3.29;100.00;98020.97;4917781;29;20044;-77
2022/11/11 07:00:32;;;;;;;0.10;0.10;;;;;;;3.30;100.00;98022.63;4917426;29;20035;-76
2022/11/11 07:03:36;;;;;;;0.10;0.10;;;;;;;3.38;100.00;98029.75;4916743;29;20047;-76
2022/11/11 07:06:40;;;;;;;0.10;0.10;;;;;;;3.48;100.00;98017.16;4917999;29;20039;-75
2022/11/11 07:09:45;;;;;;;0.10;0.10;;;;;;;3.59;100.00;98022.97;4916445;29;20534;-76
2022/11/11 07:12:50;;;;;;;0.15;0.15;;;;;;;3.64;100.00;98017.16;4916704;29;20134;-75
2022/11/11 07:15:54;;;;;;;0.10;0.10;;;;;;;3.77;100.00;98014.00;4915624;29;20798;-75
2022/11/11 07:18:58;;;;;;;0.10;0.10;;;;;;;3.81;100.00;98015.31;4914696;29;20265;-75
2022/11/11 07:22:03;;;;;;;0.10;0.10;;;;;;;3.83;100.00;98013.34;4916985;29;20044;-75
2022/11/11 07:25:07;;;;;;;0.10;0.10;;;;;;;3.94;100.00;98015.63;4917439;29;20325;-75
2022/11/11 07:28:12;;;;;;;0.10;0.10;;;;;;;4.05;100.00;98022.41;4917438;29;20130;-76
2022/11/11 07:31:17;;;;;;;0.13;0.13;;;;;;;4.17;100.00;98021.88;4918219;29;20437;-75
2022/11/11 07:34:21;;;;;;;0.10;0.10;;;;;;;4.19;100.00;98019.88;4917072;29;20046;-76
2022/11/11 07:37:26;;;;;;;0.20;0.20;;;;;;;4.26;100.00;98035.09;4920043;29;20051;-75
2022/11/11 07:40:30;;;;;;;0.10;0.10;;;;;;;4.40;100.00;98029.09;4918249;29;20040;-77
2022/11/11 07:43:34;;;;;;;0.20;0.20;;;;;;;4.47;100.00;98030.06;4917921;29;20257;-77
2022/11/11 07:46:39;;;;;;;0.10;0.10;;;;;;;4.55;100.00;98031.84;4922810;29;20071;-76
2022/11/11 07:49:43;;;;;;;0.20;0.20;;;;;;;4.57;100.00;98032.50;4914829;29;20165;-76
2022/11/11 07:52:48;;;;;;;0.10;0.10;;;;;;;4.65;100.00;98046.53;4914577;29;20476;-77
2022/11/11 07:55:53;;;;;;;0.10;0.10;;;;;;;4.73;100.00;98046.50;4912294;29;20107;-77
2022/11/11 07:58:58;;;;;;;0.10;0.10;;;;;;;4.93;100.00;98054.88;4915007;29;20055;-75
2022/11/11 08:02:02;;;;;;;0.10;0.10;;;;;;;5.03;100.00;98049.34;4916075;29;20702;-76
2022/11/11 08:05:08;;;;;;;0.10;0.10;;;;;;;5.23;100.00;98060.34;4915862;29;20768;-77
2022/11/11 08:08:12;;;;;;;0.10;0.10;;;;;;;5.40;100.00;98047.78;4916781;29;20494;-74
2022/11/11 08:13:39;;;;;;;0.10;0.10;;;;;;;5.52;100.00;98049.81;4916516;29;20035;-75
2022/11/11 08:14:41;;;;;;;0.10;0.10;;;;;;;5.68;100.00;98048.06;4915504;29;20106;-77
2022/11/11 08:17:45;;;;;;;0.10;0.10;;;;;;;5.80;100.00;98052.78;4916279;29;20043;-77
2022/11/11 08:20:49;;;;;;;0.10;0.10;;;;;;;5.91;100.00;98053.38;4917530;29;20107;-75
2022/11/11 08:23:54;;;;;;;0.10;0.10;;;;;;;6.05;100.00;98044.59;4916051;29;20115;-77
2022/11/11 08:26:59;;;;;;;0.10;0.10;;;;;;;6.10;100.00;98052.88;4916145;29;20122;-77
2022/11/11 08:30:05;;;;;;;0.10;0.10;;;;;;;6.23;100.00;98046.94;4917025;29;20095;-76
2022/11/11 08:33:10;;;;;;;0.17;0.17;;;;;;;6.31;100.00;98041.53;4913885;29;20661;-77
2022/11/11 08:36:14;;;;;;;0.13;0.13;;;;;;;6.46;100.00;98041.50;4914069;29;20036;-77
2022/11/11 08:39:21;;;;;;;0.10;0.10;;;;;;;6.56;100.00;98034.09;4915595;29;20039;-76
2022/11/11 08:42:27;;;;;;;0.10;0.10;;;;;;;6.68;100.00;98036.06;4918293;29;20058;-76
2022/11/11 08:45:31;;;;;;;0.10;0.10;;;;;;;6.84;100.00;98042.19;4919045;29;20082;-78
2022/11/11 08:48:36;;;;;;;0.10;0.10;;;;;;;6.91;100.00;98048.44;4918363;29;20139;-78
2022/11/11 08:51:40;;;;;;;0.20;0.20;;;;;;;7.08;100.00;98041.91;4917543;29;20866;-74
2022/11/11 08:54:45;;;;;;;0.10;0.10;;;;;;;7.19;100.00;98046.72;4914142;29;20086;-75
2022/11/11 08:58:00;;;;;;;0.13;0.13;;;;;;;7.45;100.00;98056.00;4917492;29;20043;-75
2022/11/11 09:01:10;;;;;;;0.10;0.10;;;;;;;7.51;100.00;98058.72;4914002;29;20079;-74
2022/11/11 09:04:16;;;;;;;0.10;0.10;;;;;;;7.71;100.00;98048.28;4912955;29;20043;-76
2022/11/11 09:07:20;;;;;;;0.10;0.10;;;;;;;7.97;100.00;98060.97;4914797;29;20983;-76
2022/11/11 09:10:24;;;;;;;0.10;0.10;;;;;;;8.10;100.00;98063.75;4913209;29;20055;-77
2022/11/11 09:13:29;;;;;;;0.10;0.10;;;;;;;8.50;100.00;98061.38;4908209;29;20131;-74
2022/11/11 09:16:33;;;;;;;0.10;0.10;;;;;;;8.64;100.00;98062.31;4913024;29;20355;-75
2022/11/11 09:19:37;;;;;;;0.10;0.10;;;;;;;8.89;100.00;98057.28;4914596;29;20115;-74
2022/11/11 09:22:42;;;;;;;0.20;0.20;;;;;;;9.37;100.00;98066.06;4918065;29;20087;-74
2022/11/11 09:25:47;;;;;;;0.20;0.20;;;;;;;10.02;100.00;98069.84;4919019;29;21180;-76
2022/11/11 09:28:51;;;;;;;0.10;0.10;;;;;;;10.70;100.00;98066.09;4917385;29;20135;-74
2022/11/11 09:31:56;;;;;;;0.20;0.20;;;;;;;10.52;100.00;98067.59;4918806;29;20075;-74
2022/11/11 09:35:01;;;;;;;0.13;0.13;;;;;;;11.11;100.00;98052.34;4916972;29;20043;-75
2022/11/11 09:38:06;;;;;;;0.20;0.20;;;;;;;11.92;100.00;98055.19;4918022;29;20036;-75
2022/11/11 09:41:32;;;;;;;0.10;0.10;;;;;;;12.79;100.00;98063.28;4914367;29;20106;-77
2022/11/11 09:45:17;;;;;;;0.20;0.20;;;;;;;13.24;100.00;98065.66;4918195;29;20039;-77
2022/11/11 10:00:57;;;;;;;0.20;0.20;;;;;;;15.97;100.00;98068.63;4821122;28;20305;-78
2022/11/11 10:04:19;;;;;;;0.13;0.13;;;;;;;14.89;100.00;98071.13;4900360;29;20079;-77
2022/11/11 10:07:33;;;;;;;0.20;0.20;;;;;;;14.70;100.00;98075.00;4918080;29;20044;-77
2022/11/11 10:10:50;;;;;;;0.20;0.20;;;;;;;16.39;100.00;98080.66;4918287;29;20464;-76
2022/11/11 10:13:55;;;;;;;0.10;0.10;;;;;;;16.05;100.00;98070.94;4915603;29;20056;-76
2022/11/11 10:17:33;;;;;;;0.20;0.20;;;;;;;16.57;98.92;98070.66;4805734;29;20686;-78
2022/11/11 10:21:29;;;;;;;0.20;0.20;;;;;;;17.09;93.49;98063.03;4795435;29;20438;-79
2022/11/11 10:25:16;;;;;;;0.10;0.10;;;;;;;16.99;97.89;98057.50;4811241;29;20051;-78
2022/11/11 10:28:25;;;;;;;0.20;0.20;;;;;;;15.15;100.00;98056.28;4902971;29;20080;-76
2022/11/11 10:31:30;;;;;;;0.10;0.10;;;;;;;15.03;100.00;98056.31;4918080;29;20058;-77
2022/11/11 10:34:36;;;;;;;0.20;0.20;;;;;;;15.52;100.00;98064.03;4918678;29;20395;-77
2022/11/11 10:38:14;;;;;;;0.20;0.20;;;;;;;17.01;99.07;98057.25;4901693;29;20426;-78
2022/11/11 10:41:36;;;;;;;0.10;0.10;;;;;;;19.33;88.06;98047.84;4868748;29;20039;-76
2022/11/11 10:44:42;;;;;;;0.10;0.10;;;;;;;19.36;79.64;98047.28;4917414;29;20270;-77
2022/11/11 10:47:51;;;;;;;0.20;0.20;;;;;;;20.38;73.65;98050.97;4917341;29;20036;-75
2022/11/11 10:50:59;;;;;;;0.10;0.10;;;;;;;22.18;56.57;98041.84;4902401;29;20624;-77
2022/11/11 10:54:07;;;;;;;0.17;0.17;;;;;;;23.98;57.65;98042.25;4903186;29;20235;-78
2022/11/11 10:57:27;;;;;;;0.20;0.20;;;;;;;24.03;48.11;98042.97;4919792;29;20063;-78
2022/11/11 11:00:33;;;;;;;0.17;0.10;;;;;;;25.65;47.49;98040.25;4919359;29;20106;-76
2022/11/11 11:04:08;;;;;;;0.10;0.10;;;;;;;26.54;41.12;98042.31;4919652;29;20815;-76
2022/11/11 11:07:20;;;;;;;0.20;0.20;;;;;;;27.36;41.96;98047.19;4921419;29;20051;-78
2022/11/11 11:10:48;;;;;;;0.10;0.10;;;;;;;26.89;39.83;98052.31;4920323;29;20047;-76
2022/11/11 11:13:59;;;;;;;0.10;0.10;;;;;;;25.82;35.09;98043.97;4918196;29;20203;-77
2022/11/11 11:17:13;;;;;;;0.10;0.10;;;;;;;24.55;46.40;98052.00;4916652;29;20032;-76
2022/11/11 11:20:20;;;;;;;0.20;0.20;;;;;;;23.74;43.15;98053.28;4918205;29;20043;-77
2022/11/11 11:23:44;;;;;;;0.20;0.20;;;;;;;25.59;36.03;98041.47;4917378;29;20131;-77
2022/11/11 11:26:52;;;;;;;0.20;0.20;;;;;;;25.59;39.85;98039.53;4573935;29;9999920;-78
2022/11/11 11:30:10;;;;;;;0.10;0.10;;;;;;;23.40;38.17;98037.84;4916387;29;20632;-78
2022/11/11 11:33:14;;;;;;;0.17;0.17;;;;;;;23.36;38.83;98028.63;4918624;29;20118;-77
2022/11/11 11:36:19;;;;;;;0.17;0.17;;;;;;;23.41;36.37;98034.00;4907844;29;20063;-77
2022/11/11 11:39:36;;;;;;;0.20;0.20;;;;;;;24.99;35.87;98032.28;4917679;29;20047;-77
2022/11/11 11:42:40;;;;;;;0.20;0.20;;;;;;;24.70;34.45;98040.78;4920731;29;20462;-77
2022/11/11 11:45:54;;;;;;;0.20;0.20;;;;;;;24.76;35.66;98033.28;4920768;29;20439;-76
2022/11/11 11:49:04;;;;;;;0.10;0.10;;;;;;;25.10;39.15;98018.41;4920660;29;20047;-78
2022/11/11 11:52:37;;;;;;;0.20;0.20;;;;;;;24.49;38.63;98027.75;4920356;29;20482;-77
2022/11/11 11:55:50;;;;;;;0.10;0.10;;;;;;;24.33;33.04;98028.03;4920482;29;20118;-77
2022/11/11 11:59:05;;;;;;;0.10;0.10;;;;;;;25.34;31.74;98009.97;4919684;29;20062;-78
2022/11/11 12:02:43;;;;;;;0.10;0.10;;;;;;;26.88;29.87;98017.75;4923270;29;20445;-78
2022/11/11 12:06:10;;;;;;;0.10;0.10;;;;;;;26.97;28.76;98016.97;4927116;29;20051;-76
2022/11/11 12:09:23;;;;;;;0.10;0.10;;;;;;;29.32;29.93;98020.06;4922928;29;20066;-79
2022/11/11 12:13:06;;;;;;;0.20;0.20;;;;;;;29.70;25.39;98016.47;4923269;29;20359;-78
2022/11/11 12:16:25;;;;;;;0.15;0.15;;;;;;;28.91;26.13;98017.22;4919569;29;20079;-79
2022/11/11 12:19:32;;;;;;;0.10;0.10;;;;;;;29.84;28.02;98010.69;4917504;29;20052;-76
2022/11/11 12:23:16;;;;;;;0.10;0.10;;;;;;;31.26;23.06;98004.63;4920040;29;20224;-79
2022/11/11 12:26:48;;;;;;;0.20;0.20;;;;;;;29.47;24.69;97998.59;4920090;29;20141;-76
2022/11/11 12:30:02;;;;;;;0.17;0.17;;;;;;;29.02;25.38;98008.22;4921233;29;20138;-76
2022/11/11 12:33:30;;;;;;;0.10;0.10;;;;;;;29.38;26.39;98002.22;4921091;29;20043;-77
2022/11/11 12:36:57;;;;;;;0.17;0.17;;;;;;;29.49;24.85;98005.38;4919401;29;20039;-78
2022/11/11 12:40:20;;;;;;;0.20;0.20;;;;;;;29.28;26.09;98010.06;4920131;29;20394;-78
2022/11/11 12:43:28;;;;;;;0.20;0.20;;;;;;;28.81;26.67;98002.66;4919737;29;20035;-80
2022/11/11 12:46:39;;;;;;;0.10;0.10;;;;;;;29.01;25.67;98000.31;4919932;29;20062;-79
2022/11/11 12:50:03;;;;;;;0.10;0.10;;;;;;;29.11;28.56;98000.75;4916955;29;20135;-77
2022/11/11 12:53:33;;;;;;;0.15;0.15;;;;;;;28.37;28.27;98001.16;4919542;29;20040;-79
2022/11/11 12:56:59;;;;;;;0.10;0.10;;;;;;;29.17;27.44;98006.88;4919718;29;20054;-80
2022/11/11 13:00:16;;;;;;;0.10;0.10;;;;;;;31.55;26.16;97991.69;4920089;29;20051;-80
2022/11/11 13:03:34;;;;;;;0.10;0.10;;;;;;;30.49;24.83;97981.50;4920305;29;20075;-80
2022/11/11 13:07:03;;;;;;;0.10;0.10;;;;;;;28.42;28.40;97980.91;4919757;29;20046;-80
2022/11/11 13:10:38;;;;;;;0.10;0.10;;;;;;;29.86;26.29;97986.31;4920489;29;20067;-78
2022/11/11 13:13:58;;;;;;;0.10;0.10;;;;;;;29.31;26.50;97987.34;4918036;29;20508;-79
2022/11/11 13:17:10;;;;;;;0.10;0.10;;;;;;;27.52;28.77;97987.06;4921108;29;20473;-77
2022/11/11 13:20:26;;;;;;;0.00;0.00;;;;;;;24.85;33.37;97997.81;4919291;29;20310;-77
2022/11/11 13:23:30;;;;;;;0.00;0.00;;;;;;;20.17;44.94;98014.84;4918488;29;20138;-77
2022/11/11 13:26:47;;;;;;;0.00;0.00;;;;;;;18.27;53.98;98010.91;4920069;29;20709;-79
2022/11/11 13:30:21;;;;;;;0.00;0.00;;;;;;;18.51;61.69;98022.97;4918391;29;20419;-76
2022/11/11 13:33:38;;;;;;;0.00;0.00;;;;;;;17.14;66.14;98010.91;4916081;29;20082;-78
2022/11/11 13:36:50;;;;;;;0.10;0.10;;;;;;;16.41;72.72;98024.50;4918722;29;20054;-76
2022/11/11 13:40:19;;;;;;;0.00;0.00;;;;;;;16.51;75.72;98023.84;4917825;29;20051;-78
2022/11/11 13:43:33;;;;;;;0.00;0.00;;;;;;;16.12;78.85;98023.00;4920043;29;20047;-77
2022/11/11 13:46:42;;;;;;;0.05;0.05;;;;;;;15.27;85.80;98040.09;4920498;29;20044;-78
2022/11/11 13:49:54;;;;;;;0.00;0.00;;;;;;;15.19;87.74;98043.97;4917829;29;20666;-78
2022/11/11 13:53:04;;;;;;;0.10;0.10;;;;;;;14.78;88.46;98045.00;4900990;29;20040;-77
2022/11/11 13:56:10;;;;;;;0.10;0.10;;;;;;;14.77;88.16;98029.88;4916158;29;20090;-77
2022/11/11 13:59:28;;;;;;;0.00;0.00;;;;;;;14.74;91.89;98041.97;4914266;29;20311;-77
2022/11/11 14:02:34;;;;;;;0.00;0.00;;;;;;;14.52;89.02;98038.22;4916837;29;20333;-77
2022/11/11 14:05:38;;;;;;;0.00;0.00;;;;;;;14.15;84.83;98033.03;4917268;29;20036;-78
2022/11/11 14:08:46;;;;;;;0.00;0.00;;;;;;;13.90;88.31;98027.88;4919767;29;20341;-76
2022/11/11 14:12:29;;;;;;;0.10;0.10;;;;;;;13.73;92.81;98031.47;4920893;29;20043;-77
2022/11/11 14:15:42;;;;;;;0.00;0.00;;;;;;;13.66;95.88;98039.63;4922878;29;20087;-79
2022/11/11 14:18:47;;;;;;;0.00;0.00;;;;;;;13.30;100.00;98032.47;4919006;29;20047;-79
2022/11/11 14:21:56;;;;;;;0.10;0.10;;;;;;;13.18;100.00;98036.97;4920838;29;20038;-78
2022/11/11 14:25:31;;;;;;;0.15;0.15;;;;;;;13.30;100.00;98029.78;4919904;29;20043;-78
2022/11/11 14:28:47;;;;;;;0.10;0.10;;;;;;;13.14;100.00;98030.41;4919889;29;20053;-78
2022/11/11 14:32:10;;;;;;;0.13;0.13;;;;;;;13.01;100.00;98040.28;4921812;29;20036;-77
2022/11/11 14:35:25;;;;;;;0.00;0.00;;;;;;;12.89;100.00;98034.00;4923027;29;20135;-79
2022/11/11 14:38:38;;;;;;;0.10;0.10;;;;;;;12.79;100.00;98025.66;4920270;29;20036;-78
2022/11/11 14:41:47;;;;;;;0.10;0.10;;;;;;;12.67;100.00;98024.75;4922603;29;20126;-79
2022/11/11 14:44:51;;;;;;;0.10;0.10;;;;;;;12.47;100.00;98030.34;4919720;29;20036;-77
2022/11/11 14:47:57;;;;;;;0.15;0.15;;;;;;;12.47;100.00;98017.75;4922262;29;20046;-77
2022/11/11 14:51:02;;;;;;;0.10;0.10;;;;;;;12.52;100.00;98025.13;4920819;29;20623;-78
2022/11/11 14:54:21;;;;;;;0.10;0.10;;;;;;;12.13;100.00;98029.00;4920069;29;20087;-77
2022/11/11 14:57:32;;;;;;;0.10;0.10;;;;;;;12.02;100.00;98021.69;4921418;29;20040;-77
2022/11/11 15:01:11;;;;;;;0.17;0.17;;;;;;;11.95;100.00;98027.94;4922561;29;20072;-77
2022/11/11 15:04:15;;;;;;;0.10;0.10;;;;;;;11.82;100.00;98021.84;4918703;29;20047;-77
2022/11/11 15:07:36;;;;;;;0.10;0.10;;;;;;;11.65;100.00;98025.03;4919373;29;20142;-77
2022/11/11 15:10:58;;;;;;;0.10;0.10;;;;;;;11.53;100.00;98023.28;4920193;29;20075;-77
2022/11/11 15:14:20;;;;;;;0.10;0.10;;;;;;;11.60;100.00;98022.19;4918215;29;20488;-78
2022/11/11 15:17:43;;;;;;;0.10;0.10;;;;;;;11.46;100.00;98014.44;4916710;29;20074;-76
2022/11/11 15:21:06;;;;;;;0.10;0.10;;;;;;;11.37;100.00;98017.41;4918891;29;20176;-76
2022/11/11 15:24:26;;;;;;;0.10;0.10;;;;;;;11.37;100.00;98014.72;4918733;29;20207;-76
2022/11/11 15:27:41;;;;;;;0.10;0.10;;;;;;;11.42;100.00;98017.53;4919399;29;20218;-76
2022/11/11 15:31:01;;;;;;;0.00;0.00;;;;;;;10.99;100.00;98017.38;4919393;29;20102;-78
2022/11/11 15:34:30;;;;;;;0.10;0.10;;;;;;;10.96;100.00;98016.97;4903342;29;20051;-78
2022/11/11 15:37:36;;;;;;;0.10;0.10;;;;;;;10.81;100.00;98014.56;4918700;29;20282;-78
2022/11/11 15:40:57;;;;;;;0.20;0.13;;;;;;;10.59;100.00;98022.06;4917666;29;20048;-78
2022/11/11 15:44:01;;;;;;;0.10;0.10;;;;;;;10.54;100.00;98017.34;4918924;29;20051;-78
2022/11/11 15:47:12;;;;;;;0.10;0.10;;;;;;;10.23;100.00;98011.84;4921272;29;20039;-79
2022/11/11 15:50:28;;;;;;;0.10;0.10;;;;;;;10.12;100.00;98007.94;4917401;29;20058;-78
2022/11/11 15:53:32;;;;;;;0.10;0.10;;;;;;;9.98;100.00;98012.47;4918638;29;20126;-79
2022/11/11 15:56:37;;;;;;;0.10;0.10;;;;;;;9.81;100.00;98005.91;4910437;29;20051;-78
2022/11/11 15:59:41;;;;;;;0.10;0.10;;;;;;;9.76;100.00;98003.00;4578870;29;10000054;-78
2022/11/11 16:02:46;;;;;;;0.10;0.10;;;;;;;9.69;100.00;98005.69;4580553;29;10000988;-78
2022/11/11 16:05:50;;;;;;;0.10;0.10;;;;;;;9.83;100.00;98011.84;4918545;29;20050;-78
2022/11/11 16:08:55;;;;;;;0.13;0.13;;;;;;;9.74;100.00;98002.41;4916301;29;20051;-79
2022/11/11 16:12:00;;;;;;;0.10;0.10;;;;;;;9.59;100.00;98015.97;4917452;29;20039;-77
2022/11/11 16:15:08;;;;;;;0.10;0.10;;;;;;;8.99;100.00;98007.00;4915587;29;20123;-77